createdAt,value
2019-03-06T00:01:27.402Z,12.57
2019-03-06T00:03:57.875Z,10.53
2019-03-06T00:06:28.367Z,9.27
2019-03-06T00:08:58.829Z,14.10
2019-03-06T00:11:29.235Z,8.60
2019-03-06T00:13:59.705Z,10.77
2019-03-06T00:16:30.120Z,9.47
2019-03-06T00:19:00.578Z,9.85
2019-03-06T00:21:31.085Z,9.90
2019-03-06T00:24:01.609Z,10.07
2019-03-06T00:26:32.119Z,11.43
2019-03-06T00:29:03.654Z,10.10
2019-03-06T00:31:34.081Z,9.13
2019-03-06T00:34:04.619Z,11.60
2019-03-06T00:36:35.129Z,12.40
2019-03-06T00:39:07.102Z,10.77
2019-03-06T00:41:39.996Z,11.23
2019-03-06T00:44:10.466Z,11.00
2019-03-06T00:46:40.895Z,10.90
2019-03-06T00:49:17.151Z,12.17
2019-03-06T00:51:49.017Z,9.30
2019-03-06T00:54:19.481Z,13.83
2019-03-06T00:56:49.893Z,9.80
2019-03-06T00:59:20.342Z,12.97
2019-03-06T01:01:52.942Z,13.43
2019-03-06T01:04:31.958Z,12.63
2019-03-06T01:07:03.595Z,12.23
2019-03-06T01:09:34.348Z,11.30
2019-03-06T01:12:04.846Z,12.67
2019-03-06T01:14:35.327Z,11.47
2019-03-06T01:17:05.764Z,10.07
2019-03-06T01:19:36.229Z,11.37
2019-03-06T01:22:06.727Z,10.70
2019-03-06T01:24:37.417Z,11.07
2019-03-06T01:27:07.900Z,10.97
2019-03-06T01:29:38.358Z,11.00
2019-03-06T01:32:08.800Z,12.23
2019-03-06T01:34:40.887Z,12.90
2019-03-06T01:37:12.967Z,9.53
2019-03-06T01:39:47.849Z,10.13
2019-03-06T01:42:20.008Z,12.20
2019-03-06T01:44:50.473Z,10.67
2019-03-06T01:47:20.939Z,11.33
2019-03-06T01:49:51.399Z,11.63
2019-03-06T01:52:21.843Z,11.50
2019-03-06T01:54:52.316Z,11.77
2019-03-06T01:57:22.739Z,10.83
2019-03-06T01:59:53.287Z,10.50
2019-03-06T02:02:23.796Z,11.13
2019-03-06T02:04:54.260Z,11.10
2019-03-06T02:07:25.070Z,11.97
2019-03-06T02:09:55.532Z,12.73
2019-03-06T02:12:25.966Z,13.20
2019-03-06T02:14:56.433Z,11.53
2019-03-06T02:17:26.872Z,12.97
2019-03-06T02:19:57.779Z,14.63
2019-03-06T02:22:28.212Z,14.17
2019-03-06T02:24:58.756Z,13.77
2019-03-06T02:27:29.251Z,15.77
2019-03-06T02:29:59.991Z,12.53
2019-03-06T02:32:30.434Z,12.80
2019-03-06T02:35:00.889Z,11.90
2019-03-06T02:37:31.395Z,13.23
2019-03-06T02:40:01.918Z,12.03
2019-03-06T02:42:32.596Z,13.50
2019-03-06T02:45:03.059Z,12.60
2019-03-06T02:47:34.558Z,13.70
2019-03-06T02:50:07.767Z,12.23
2019-03-06T02:52:38.280Z,13.37
2019-03-06T02:55:11.365Z,13.80
2019-03-06T02:57:46.472Z,12.27
2019-03-06T03:00:36.956Z,13.00
2019-03-06T03:03:25.509Z,14.23
2019-03-06T03:06:00.483Z,14.00
2019-03-06T03:08:31.214Z,13.90
2019-03-06T03:11:01.678Z,12.47
2019-03-06T03:13:32.180Z,15.40
2019-03-06T03:16:02.713Z,14.70
2019-03-06T03:18:33.293Z,18.90
2019-03-06T03:21:04.733Z,16.33
2019-03-06T03:23:35.174Z,15.00
2019-03-06T03:26:05.662Z,14.40
2019-03-06T03:28:36.100Z,14.97
2019-03-06T03:31:06.574Z,14.07
2019-03-06T03:33:37.013Z,16.00
2019-03-06T03:36:07.471Z,13.77
2019-03-06T03:38:37.920Z,17.80
2019-03-06T03:41:08.469Z,14.57
2019-03-06T03:43:39.565Z,15.63
2019-03-06T03:46:10.272Z,15.13
2019-03-06T03:48:40.721Z,19.93
2019-03-06T03:51:11.196Z,13.30
2019-03-06T03:53:41.646Z,15.13
2019-03-06T03:56:12.108Z,16.43
2019-03-06T03:58:42.538Z,16.03
2019-03-06T04:01:13.014Z,14.57
2019-03-06T04:03:43.449Z,15.03
2019-03-06T04:06:13.982Z,17.13
2019-03-06T04:08:44.488Z,16.30
2019-03-06T04:11:14.950Z,14.70
2019-03-06T04:13:45.403Z,13.23
2019-03-06T04:16:15.852Z,13.13
2019-03-06T04:18:46.675Z,14.87
2019-03-06T04:21:17.125Z,18.00
2019-03-06T04:23:47.557Z,15.20
2019-03-06T04:26:18.026Z,17.17
2019-03-06T04:28:48.471Z,14.17
2019-03-06T04:31:19.100Z,16.80
2019-03-06T04:33:49.547Z,15.30
2019-03-06T04:36:20.020Z,19.63
2019-03-06T04:38:50.449Z,15.20
2019-03-06T04:41:21.992Z,14.47
2019-03-06T04:43:53.860Z,14.73
2019-03-06T04:46:24.324Z,14.03
2019-03-06T04:48:54.745Z,16.40
2019-03-06T04:51:25.212Z,14.83
2019-03-06T04:53:55.712Z,14.50
2019-03-06T04:56:26.168Z,15.53
2019-03-06T04:58:56.608Z,15.07
2019-03-06T05:01:37.577Z,14.90
2019-03-06T05:04:08.083Z,15.67
2019-03-06T05:06:38.550Z,17.50
2019-03-06T05:09:08.977Z,17.40
2019-03-06T05:11:39.443Z,18.50
2019-03-06T05:14:10.050Z,16.47
2019-03-06T05:16:42.161Z,18.53
2019-03-06T05:19:12.714Z,16.33
2019-03-06T05:21:43.520Z,15.97
2019-03-06T05:24:13.945Z,20.20
2019-03-06T05:26:44.430Z,27.33
2019-03-06T05:29:14.938Z,49.60
2019-03-06T05:32:21.794Z,123.30
2019-03-06T05:34:52.246Z,107.60
2019-03-06T05:37:40.812Z,54.17
2019-03-06T05:40:11.514Z,34.30
2019-03-06T05:42:41.998Z,19.90
2019-03-06T05:45:12.749Z,22.23
2019-03-06T05:47:43.225Z,17.87
2019-03-06T05:50:14.645Z,22.40
2019-03-06T05:52:45.241Z,20.47
2019-03-06T05:55:15.676Z,17.70
2019-03-06T05:57:46.146Z,20.93
2019-03-06T06:00:19.160Z,18.30
2019-03-06T06:02:49.648Z,19.77
2019-03-06T06:05:23.107Z,19.13
2019-03-06T06:07:53.880Z,24.17
2019-03-06T06:10:24.302Z,34.53
2019-03-06T06:12:54.853Z,44.87
2019-03-06T06:15:25.295Z,45.10
2019-03-06T06:17:56.297Z,35.80
2019-03-06T06:20:26.896Z,24.97
2019-03-06T06:23:01.747Z,23.57
2019-03-06T06:25:33.804Z,22.47
2019-03-06T06:28:04.294Z,23.20
2019-03-06T06:30:34.920Z,22.23
2019-03-06T06:33:05.466Z,35.00
2019-03-06T06:35:35.959Z,28.33
2019-03-06T06:38:07.489Z,19.07
2019-03-06T06:40:37.914Z,20.57
2019-03-06T06:43:09.395Z,23.60
2019-03-06T06:45:39.900Z,18.03
2019-03-06T06:48:21.246Z,17.53
2019-03-06T06:51:02.589Z,20.23
2019-03-06T06:53:45.303Z,17.70
2019-03-06T06:56:31.050Z,19.07
2019-03-06T06:59:04.786Z,19.17
2019-03-06T07:02:08.613Z,19.87
2019-03-06T07:05:02.927Z,22.90
2019-03-06T07:07:38.257Z,18.70
2019-03-06T07:10:22.450Z,17.50
2019-03-06T07:13:12.689Z,18.13
2019-03-06T07:16:01.193Z,17.40
2019-03-06T07:18:33.354Z,21.03
2019-03-06T07:21:11.663Z,20.27
2019-03-06T07:23:49.633Z,18.07
2019-03-06T07:26:38.241Z,21.37
2019-03-06T07:29:16.552Z,20.60
2019-03-06T07:31:48.684Z,21.03
2019-03-06T07:34:32.921Z,17.97
2019-03-06T07:37:05.201Z,19.30
2019-03-06T07:39:37.414Z,20.83
2019-03-06T07:42:21.418Z,18.10
2019-03-06T07:45:21.191Z,26.00
2019-03-06T07:47:53.356Z,21.17
2019-03-06T07:50:25.458Z,25.40
2019-03-06T07:53:19.929Z,26.07
2019-03-06T07:55:52.105Z,25.60
2019-03-06T07:58:50.568Z,22.50
2019-03-06T08:01:22.455Z,23.40
2019-03-06T08:04:02.683Z,22.63
2019-03-06T08:06:33.236Z,18.25
2019-03-06T08:09:04.123Z,22.67
2019-03-06T08:11:53.886Z,19.07
2019-03-06T08:14:31.628Z,26.83
2019-03-06T08:17:06.729Z,22.07
2019-03-06T08:19:47.364Z,21.50
2019-03-06T08:22:19.655Z,23.22
2019-03-06T08:24:54.668Z,22.73
2019-03-06T08:27:26.145Z,23.15
2019-03-06T08:29:56.583Z,21.70
2019-03-06T08:32:28.690Z,23.22
2019-03-06T08:35:00.245Z,21.50
2019-03-06T08:37:30.832Z,22.52
2019-03-06T08:40:01.271Z,26.07
2019-03-06T08:42:32.996Z,22.73
2019-03-06T08:45:04.169Z,18.82
2019-03-06T08:47:40.277Z,22.70
2019-03-06T08:50:18.203Z,20.88
2019-03-06T08:52:50.397Z,20.82
2019-03-06T08:55:40.660Z,21.77
2019-03-06T08:58:18.619Z,22.80
2019-03-06T09:00:50.705Z,22.35
2019-03-06T09:03:26.865Z,18.52
2019-03-06T09:06:08.040Z,19.82
2019-03-06T09:08:56.356Z,20.10
2019-03-06T09:11:37.208Z,21.55
2019-03-06T09:14:26.019Z,19.23
2019-03-06T09:17:03.926Z,25.25
2019-03-06T09:19:49.566Z,19.00
2019-03-06T09:22:21.725Z,24.15
2019-03-06T09:24:56.853Z,19.80
2019-03-06T09:27:34.767Z,21.25
2019-03-06T09:30:16.028Z,23.18
2019-03-06T09:32:48.818Z,22.60
2019-03-06T09:35:33.094Z,24.00
2019-03-06T09:38:22.991Z,26.15
2019-03-06T09:41:10.820Z,23.35
2019-03-06T09:43:48.638Z,23.57
2019-03-06T09:46:23.689Z,21.65
2019-03-06T09:48:56.060Z,25.45
2019-03-06T09:51:31.059Z,26.90
2019-03-06T09:54:03.120Z,25.25
2019-03-06T09:56:35.307Z,26.07
2019-03-06T09:59:07.569Z,27.00
2019-03-06T10:01:55.576Z,27.70
2019-03-06T10:04:34.328Z,30.25
2019-03-06T10:07:18.478Z,27.52
2019-03-06T10:10:08.764Z,26.33
2019-03-06T10:12:51.236Z,30.97
2019-03-06T10:15:32.046Z,32.15
2019-03-06T10:18:04.162Z,30.27
2019-03-06T10:20:34.614Z,34.25
2019-03-06T10:23:05.152Z,30.32
2019-03-06T10:25:36.583Z,29.32
2019-03-06T10:28:07.118Z,26.97
2019-03-06T10:30:37.637Z,23.83
2019-03-06T10:33:08.176Z,26.35
2019-03-06T10:35:38.676Z,23.92
2019-03-06T10:38:16.442Z,28.80
2019-03-06T10:40:41.569Z,23.45
2019-03-06T10:43:12.410Z,26.40
2019-03-06T10:45:43.928Z,25.02
2019-03-06T10:48:14.469Z,27.40
2019-03-06T10:50:44.978Z,25.65
2019-03-06T10:53:15.525Z,20.45
2019-03-06T10:55:46.036Z,25.05
2019-03-06T10:58:16.575Z,26.85
2019-03-06T11:00:51.674Z,25.35
2019-03-06T11:03:23.936Z,22.62
2019-03-06T11:05:54.427Z,25.00
2019-03-06T11:08:25.106Z,22.15
2019-03-06T11:10:55.735Z,23.07
2019-03-06T11:13:26.359Z,22.35
2019-03-06T11:15:56.930Z,21.35
2019-03-06T11:18:27.481Z,24.47
2019-03-06T11:20:58.011Z,18.50
2019-03-06T11:23:29.122Z,19.70
2019-03-06T11:25:59.580Z,20.62
2019-03-06T11:28:30.071Z,17.00
2019-03-06T11:31:00.597Z,19.40
2019-03-06T11:33:31.312Z,17.62
2019-03-06T11:36:02.039Z,17.23
2019-03-06T11:38:32.577Z,20.23
2019-03-06T11:41:02.999Z,17.77
2019-03-06T11:43:33.548Z,18.40
2019-03-06T11:46:04.149Z,17.95
2019-03-06T11:48:34.759Z,18.73
2019-03-06T11:51:05.498Z,19.40
2019-03-06T11:53:36.093Z,17.27
2019-03-06T11:56:06.603Z,19.45
2019-03-06T11:58:38.143Z,19.45
2019-03-06T12:01:11.946Z,19.52
2019-03-06T12:03:43.228Z,21.70
2019-03-06T12:06:13.826Z,17.10
2019-03-06T12:08:45.818Z,21.85
2019-03-06T12:11:16.554Z,19.73
2019-03-06T12:13:47.087Z,18.55
2019-03-06T12:16:18.846Z,18.98
2019-03-06T12:18:49.407Z,15.43
2019-03-06T12:21:20.072Z,19.02
2019-03-06T12:23:51.290Z,18.27
2019-03-06T12:26:22.149Z,16.85
2019-03-06T12:28:52.698Z,15.13
2019-03-06T12:31:23.134Z,18.05
2019-03-06T12:33:53.696Z,19.20
2019-03-06T12:36:24.126Z,17.62
2019-03-06T12:38:54.616Z,15.68
2019-03-06T12:41:25.069Z,19.85
2019-03-06T12:43:55.549Z,14.58
2019-03-06T12:46:25.997Z,11.73
2019-03-06T12:48:58.418Z,11.60
2019-03-06T12:51:29.239Z,15.83
2019-03-06T12:53:59.714Z,17.10
2019-03-06T12:56:31.129Z,11.68
2019-03-06T12:59:01.634Z,14.20
2019-03-06T13:01:33.263Z,13.05
2019-03-06T13:04:03.976Z,11.70
2019-03-06T13:06:38.271Z,12.43
2019-03-06T13:09:14.578Z,12.53
2019-03-06T13:11:45.184Z,16.93
2019-03-06T13:14:16.673Z,12.00
2019-03-06T13:16:50.495Z,12.25
2019-03-06T13:19:22.528Z,12.63
2019-03-06T13:21:53.096Z,11.33
2019-03-06T13:24:23.631Z,11.75
2019-03-06T13:26:54.293Z,13.70
2019-03-06T13:29:25.958Z,11.60
2019-03-06T13:31:56.567Z,9.75
2019-03-06T13:34:28.736Z,11.15
2019-03-06T13:36:59.272Z,11.40
2019-03-06T13:39:29.981Z,10.90
2019-03-06T13:42:00.578Z,13.20
2019-03-06T13:44:31.114Z,13.70
2019-03-06T13:47:01.628Z,12.80
2019-03-06T13:49:33.077Z,14.87
2019-03-06T13:52:03.601Z,14.10
2019-03-06T13:54:34.322Z,14.40
2019-03-06T13:57:04.840Z,14.35
2019-03-06T13:59:35.384Z,14.05
2019-03-06T14:02:05.914Z,12.35
2019-03-06T14:04:36.665Z,10.98
2019-03-06T14:07:07.096Z,14.90
2019-03-06T14:09:37.586Z,14.10
2019-03-06T14:12:08.311Z,12.13
2019-03-06T14:14:38.861Z,11.57
2019-03-06T14:17:14.901Z,13.10
2019-03-06T14:19:45.725Z,11.38
2019-03-06T14:22:16.247Z,13.35
2019-03-06T14:24:46.978Z,15.98
2019-03-06T14:27:17.413Z,12.65
2019-03-06T14:29:48.022Z,18.82
2019-03-06T14:32:18.549Z,15.23
2019-03-06T14:34:49.026Z,15.93
2019-03-06T14:37:19.474Z,13.28
2019-03-06T14:39:50.009Z,12.20
2019-03-06T14:42:20.442Z,11.75
2019-03-06T14:44:50.918Z,12.30
2019-03-06T14:47:23.025Z,12.37
2019-03-06T14:49:53.487Z,15.45
2019-03-06T14:52:24.002Z,22.20
2019-03-06T14:54:54.562Z,17.65
2019-03-06T14:57:26.079Z,17.73
2019-03-06T14:59:56.806Z,28.32
2019-03-06T15:02:27.302Z,20.12
2019-03-06T15:04:57.780Z,21.35
2019-03-06T15:07:28.368Z,15.68
2019-03-06T15:09:59.004Z,15.88
2019-03-06T15:12:31.481Z,17.95
2019-03-06T15:15:01.812Z,16.25
2019-03-06T15:17:32.331Z,24.57
2019-03-06T15:20:02.986Z,16.27
2019-03-06T15:22:38.669Z,16.80
2019-03-06T15:25:11.509Z,15.30
2019-03-06T15:27:42.035Z,13.20
2019-03-06T15:30:14.683Z,17.27
2019-03-06T15:32:45.219Z,18.75
2019-03-06T15:35:15.926Z,16.30
2019-03-06T15:37:46.462Z,18.77
2019-03-06T15:40:22.925Z,24.47
2019-03-06T15:42:53.451Z,29.85
2019-03-06T15:45:25.583Z,19.12
2019-03-06T15:47:56.296Z,19.10
2019-03-06T15:50:27.341Z,17.75
2019-03-06T15:52:58.200Z,18.02
2019-03-06T15:55:29.184Z,19.75
2019-03-06T15:57:59.703Z,16.30
2019-03-06T16:00:46.291Z,14.10
2019-03-06T16:03:14.645Z,22.25
2019-03-06T16:05:45.434Z,20.12
2019-03-06T16:08:15.935Z,24.35
2019-03-06T16:10:46.793Z,17.90
2019-03-06T16:13:17.222Z,19.17
2019-03-06T16:15:47.771Z,24.05
2019-03-06T16:18:20.186Z,22.45
2019-03-06T16:20:51.800Z,21.70
2019-03-06T16:23:22.610Z,24.82
2019-03-06T16:25:53.077Z,20.35
2019-03-06T16:28:23.529Z,21.00
2019-03-06T16:30:53.991Z,25.55
2019-03-06T16:33:24.494Z,20.85
2019-03-06T16:35:56.355Z,26.12
2019-03-06T16:38:26.912Z,25.52
2019-03-06T16:40:57.416Z,27.67
2019-03-06T16:43:27.924Z,42.98
2019-03-06T16:45:59.749Z,39.10
2019-03-06T16:48:30.452Z,38.88
2019-03-06T16:51:00.987Z,33.70
2019-03-06T16:53:31.554Z,29.60
2019-03-06T16:56:02.227Z,34.90
2019-03-06T16:58:32.773Z,39.23
2019-03-06T17:01:03.881Z,44.13
2019-03-06T17:03:34.394Z,44.08
2019-03-06T17:06:05.006Z,64.92
2019-03-06T17:08:36.606Z,57.98
2019-03-06T17:11:07.132Z,36.53
2019-03-06T17:13:37.655Z,35.98
2019-03-06T17:16:08.200Z,40.95
2019-03-06T17:18:38.764Z,38.15
2019-03-06T17:21:09.335Z,39.42
2019-03-06T17:23:40.167Z,43.45
2019-03-06T17:26:12.233Z,54.08
2019-03-06T17:28:42.952Z,52.80
2019-03-06T17:31:13.632Z,48.60
2019-03-06T17:33:44.350Z,34.18
2019-03-06T17:36:15.115Z,40.58
2019-03-06T17:38:45.792Z,42.40
2019-03-06T17:41:16.501Z,37.23
2019-03-06T17:43:47.644Z,34.95
2019-03-06T17:46:20.081Z,45.10
2019-03-06T17:48:50.832Z,50.15
2019-03-06T17:51:22.378Z,51.50
2019-03-06T17:53:53.111Z,42.05
2019-03-06T17:56:24.401Z,42.13
2019-03-06T17:58:55.439Z,43.92
2019-03-06T18:01:27.012Z,49.80
2019-03-06T18:04:02.352Z,39.67
2019-03-06T18:06:33.345Z,36.58
2019-03-06T18:09:04.510Z,38.15
2019-03-06T18:11:36.659Z,46.53
2019-03-06T18:14:07.077Z,42.62
2019-03-06T18:16:37.715Z,40.33
2019-03-06T18:19:08.352Z,42.88
2019-03-06T18:21:38.824Z,39.38
2019-03-06T18:24:09.659Z,40.88
2019-03-06T18:26:40.307Z,40.78
2019-03-06T18:29:10.899Z,39.35
2019-03-06T18:31:41.582Z,36.38
2019-03-06T18:34:12.082Z,37.50
2019-03-06T18:36:42.621Z,40.33
2019-03-06T18:39:14.732Z,60.75
2019-03-06T18:41:45.283Z,57.25
2019-03-06T18:44:16.308Z,60.43
2019-03-06T18:46:47.106Z,64.60
2019-03-06T18:49:17.555Z,58.95
2019-03-06T18:51:49.498Z,57.95
2019-03-06T18:54:20.551Z,56.18
2019-03-06T18:56:51.435Z,51.08
2019-03-06T18:59:21.941Z,46.50
2019-03-06T19:01:52.423Z,44.77
2019-03-06T19:04:22.925Z,40.17
2019-03-06T19:06:53.455Z,39.20
2019-03-06T19:09:24.054Z,44.98
2019-03-06T19:11:54.598Z,34.98
2019-03-06T19:14:25.046Z,35.63
2019-03-06T19:16:55.601Z,32.63
2019-03-06T19:19:26.046Z,35.58
2019-03-06T19:21:56.613Z,28.85
2019-03-06T19:24:27.421Z,32.28
2019-03-06T19:26:57.918Z,28.85
2019-03-06T19:29:28.474Z,31.77
2019-03-06T19:31:58.956Z,40.40
2019-03-06T19:34:29.398Z,44.70
2019-03-06T19:37:00.066Z,37.05
2019-03-06T19:39:30.517Z,44.03
2019-03-06T19:42:01.003Z,28.75
2019-03-06T19:44:31.653Z,30.90
2019-03-06T19:47:02.141Z,27.98
2019-03-06T19:49:32.728Z,31.48
2019-03-06T19:52:03.257Z,29.20
2019-03-06T19:54:34.649Z,29.50
2019-03-06T19:57:05.208Z,29.48
2019-03-06T19:59:35.645Z,31.70
2019-03-06T20:02:06.209Z,32.25
2019-03-06T20:04:36.845Z,27.48
2019-03-06T20:07:07.305Z,26.95
2019-03-06T20:09:37.812Z,28.40
2019-03-06T20:12:08.716Z,27.82
2019-03-06T20:14:39.212Z,36.03
2019-03-06T20:17:09.689Z,32.38
2019-03-06T20:19:41.201Z,39.95
2019-03-06T20:22:11.666Z,39.15
2019-03-06T20:24:42.179Z,43.98
2019-03-06T20:27:12.770Z,39.73
2019-03-06T20:29:43.286Z,31.37
2019-03-06T20:32:13.959Z,30.60
2019-03-06T20:34:44.461Z,29.02
2019-03-06T20:37:14.984Z,32.08
2019-03-06T20:39:45.444Z,30.15
2019-03-06T20:42:15.969Z,32.60
2019-03-06T20:44:46.491Z,36.17
2019-03-06T20:47:16.966Z,36.42
2019-03-06T20:49:47.480Z,36.68
2019-03-06T20:52:18.008Z,36.10
2019-03-06T20:54:48.513Z,36.35
2019-03-06T20:57:19.056Z,40.52
2019-03-06T20:59:49.744Z,43.25
2019-03-06T21:02:20.325Z,30.55
2019-03-06T21:04:50.864Z,28.30
2019-03-06T21:07:21.336Z,26.95
2019-03-06T21:09:51.857Z,28.83
2019-03-06T21:12:22.327Z,30.40
2019-03-06T21:14:53.042Z,33.45
2019-03-06T21:17:23.565Z,25.40
2019-03-06T21:19:54.091Z,33.80
2019-03-06T21:22:24.564Z,29.72
2019-03-06T21:24:55.045Z,27.82
2019-03-06T21:27:25.559Z,42.93
2019-03-06T21:29:56.003Z,32.70
2019-03-06T21:32:26.652Z,30.35
2019-03-06T21:34:57.102Z,52.45
2019-03-06T21:37:27.586Z,48.30
2019-03-06T21:39:58.034Z,26.05
2019-03-06T21:42:28.710Z,27.40
2019-03-06T21:44:59.232Z,29.57
2019-03-06T21:47:29.872Z,26.97
2019-03-06T21:50:01.385Z,22.73
2019-03-06T21:52:33.436Z,22.77
2019-03-06T21:55:04.875Z,26.87
2019-03-06T21:57:35.400Z,24.65
2019-03-06T22:00:15.608Z,23.07
2019-03-06T22:02:46.448Z,22.93
2019-03-06T22:05:17.247Z,25.32
2019-03-06T22:07:50.194Z,26.65
2019-03-06T22:10:19.922Z,27.02
2019-03-06T22:12:50.444Z,22.58
2019-03-06T22:15:24.219Z,21.10
2019-03-06T22:17:54.919Z,21.42
2019-03-06T22:20:25.435Z,25.75
2019-03-06T22:22:55.992Z,25.40
2019-03-06T22:25:26.504Z,28.80
2019-03-06T22:27:56.955Z,27.00
2019-03-06T22:30:27.382Z,26.23
2019-03-06T22:32:59.678Z,25.60
2019-03-06T22:35:30.220Z,26.52
2019-03-06T22:38:00.868Z,25.00
2019-03-06T22:40:31.317Z,27.37
2019-03-06T22:43:02.955Z,28.62
2019-03-06T22:45:33.460Z,26.95
2019-03-06T22:48:04.122Z,29.07
2019-03-06T22:50:34.939Z,27.58
2019-03-06T22:53:05.521Z,24.60
2019-03-06T22:55:36.043Z,23.12
2019-03-06T22:58:06.501Z,23.52
2019-03-06T23:00:56.497Z,22.05
2019-03-06T23:03:28.685Z,26.27
2019-03-06T23:05:59.188Z,25.00
2019-03-06T23:08:29.673Z,26.85
2019-03-06T23:11:00.237Z,27.17
2019-03-06T23:13:30.770Z,32.05
2019-03-06T23:16:01.191Z,31.48
2019-03-06T23:18:31.719Z,29.15
2019-03-06T23:21:02.166Z,31.10
2019-03-06T23:23:32.689Z,25.65
2019-03-06T23:26:03.195Z,24.23
2019-03-06T23:28:33.704Z,23.60
2019-03-06T23:31:04.196Z,26.42
2019-03-06T23:33:34.668Z,24.32
2019-03-06T23:36:05.096Z,25.08
2019-03-06T23:38:35.733Z,22.20
2019-03-06T23:41:06.257Z,23.60
2019-03-06T23:43:36.720Z,24.07
2019-03-06T23:46:07.152Z,24.92
2019-03-06T23:48:37.616Z,23.42
2019-03-06T23:51:10.937Z,24.20
2019-03-06T23:53:43.028Z,21.87
2019-03-06T23:56:13.475Z,21.93
2019-03-06T23:58:43.999Z,23.98
